createdAt,value
2022-10-16T11:38:24.919Z,973.75
2022-10-16T11:39:24.987Z,973.73
2022-10-16T11:40:25.609Z,973.75
2022-10-16T11:41:25.065Z,973.74
2022-10-16T11:42:26.111Z,973.71
2022-10-16T11:43:25.188Z,973.70
2022-10-16T11:44:25.281Z,973.68
2022-10-16T11:45:32.129Z,973.65
2022-10-16T11:46:25.368Z,973.67
2022-10-16T11:47:53.985Z,973.65
2022-10-16T11:48:25.514Z,973.62
2022-10-16T11:49:25.582Z,973.62
2022-10-16T11:50:26.120Z,973.60
2022-10-16T11:51:25.671Z,973.59
2022-10-16T11:52:25.739Z,973.61
2022-10-16T11:53:26.614Z,973.60
2022-10-16T11:54:25.892Z,973.60
2022-10-16T11:55:26.616Z,973.58
2022-10-16T11:56:26.016Z,973.61
2022-10-16T11:57:26.182Z,973.62
2022-10-16T11:58:26.105Z,973.61
2022-10-16T11:59:26.169Z,973.61
2022-10-16T12:00:27.123Z,973.60
2022-10-16T12:01:26.358Z,973.60
2022-10-16T12:02:26.527Z,973.55
2022-10-16T12:03:26.496Z,973.56
2022-10-16T12:04:27.122Z,973.53
2022-10-16T12:05:26.546Z,973.48
2022-10-16T12:06:26.612Z,973.44
2022-10-16T12:07:26.671Z,973.46
2022-10-16T12:08:26.749Z,973.39
2022-10-16T12:09:26.794Z,973.39
2022-10-16T12:10:27.807Z,973.43
2022-10-16T12:11:26.938Z,973.37
2022-10-16T12:12:29.083Z,973.40
2022-10-16T12:13:27.630Z,973.38
2022-10-16T12:14:27.108Z,973.36
2022-10-16T12:15:46.940Z,973.36
2022-10-16T12:16:27.235Z,973.37
2022-10-16T12:17:27.319Z,973.34
2022-10-16T12:18:27.363Z,973.28
2022-10-16T12:19:28.136Z,973.34
2022-10-16T12:20:27.543Z,973.32
2022-10-16T12:21:27.553Z,973.33
2022-10-16T12:22:27.845Z,973.35
2022-10-16T12:23:28.185Z,973.38
2022-10-16T12:24:27.819Z,973.31
2022-10-16T12:25:27.831Z,973.35
2022-10-16T12:26:27.870Z,973.40
2022-10-16T12:27:27.939Z,973.37
2022-10-16T12:28:28.097Z,973.35
2022-10-16T12:29:28.082Z,973.33
2022-10-16T12:30:29.972Z,973.34
2022-10-16T12:31:28.187Z,973.36
2022-10-16T12:32:45.601Z,973.28
2022-10-16T12:33:28.317Z,973.33
2022-10-16T12:34:28.398Z,973.28
2022-10-16T12:35:28.458Z,973.24
2022-10-16T12:36:28.524Z,973.39
2022-10-16T12:37:33.510Z,973.29
2022-10-16T12:38:28.659Z,973.22
2022-10-16T12:39:28.697Z,973.23
2022-10-16T12:40:28.802Z,973.23
2022-10-16T12:41:28.840Z,973.23
2022-10-16T12:42:29.340Z,973.22
2022-10-16T12:43:30.072Z,973.14
2022-10-16T12:44:28.995Z,973.16
2022-10-16T12:45:29.115Z,973.16
2022-10-16T12:46:29.155Z,973.15
2022-10-16T12:47:29.190Z,973.11
2022-10-16T12:48:36.957Z,973.15
2022-10-16T12:49:30.155Z,973.17
2022-10-16T12:50:29.383Z,973.14
2022-10-16T12:51:30.169Z,973.12
2022-10-16T12:52:29.754Z,973.09
2022-10-16T12:53:29.553Z,973.11
2022-10-16T13:11:14.273Z,973.17
